sensor_id;sensor_type;location;lat;lon;timestamp;pressure;altitude;pressure_sealevel;temperature;humidity
11680;BME280;5896;42.686;23.142;2024-02-16T00:01:17;93633.19;;;-0.93;82.08
11680;BME280;5896;42.686;23.142;2024-02-16T00:03:43;93635.03;;;-0.95;81.82
11680;BME280;5896;42.686;23.142;2024-02-16T00:06:08;93637.88;;;-0.98;82.20
11680;BME280;5896;42.686;23.142;2024-02-16T00:08:33;93634.50;;;-0.99;81.86
11680;BME280;5896;42.686;23.142;2024-02-16T00:11:01;93633.06;;;-1.01;82.17
11680;BME280;5896;42.686;23.142;2024-02-16T00:13:26;93639.88;;;-1.02;81.99
11680;BME280;5896;42.686;23.142;2024-02-16T00:15:51;93627.84;;;-1.00;81.87
11680;BME280;5896;42.686;23.142;2024-02-16T00:18:17;93637.19;;;-1.00;81.92
11680;BME280;5896;42.686;23.142;2024-02-16T00:20:42;93634.53;;;-1.08;82.48
11680;BME280;5896;42.686;23.142;2024-02-16T00:23:08;93638.78;;;-1.09;82.57
11680;BME280;5896;42.686;23.142;2024-02-16T00:25:34;93634.78;;;-1.11;82.55
11680;BME280;5896;42.686;23.142;2024-02-16T00:27:59;93641.44;;;-1.10;82.43
11680;BME280;5896;42.686;23.142;2024-02-16T00:30:25;93637.97;;;-1.19;82.42
11680;BME280;5896;42.686;23.142;2024-02-16T00:32:52;93641.69;;;-1.23;82.77
11680;BME280;5896;42.686;23.142;2024-02-16T00:35:17;93645.97;;;-1.14;82.90
11680;BME280;5896;42.686;23.142;2024-02-16T00:37:44;93643.72;;;-1.07;82.08
11680;BME280;5896;42.686;23.142;2024-02-16T00:40:11;93651.19;;;-1.06;82.09
11680;BME280;5896;42.686;23.142;2024-02-16T00:42:37;93634.91;;;-1.03;81.93
11680;BME280;5896;42.686;23.142;2024-02-16T00:45:02;93644.50;;;-1.07;82.02
11680;BME280;5896;42.686;23.142;2024-02-16T00:47:29;93643.72;;;-1.17;82.29
11680;BME280;5896;42.686;23.142;2024-02-16T00:49:54;93644.47;;;-1.26;82.63
11680;BME280;5896;42.686;23.142;2024-02-16T00:52:20;93644.91;;;-1.21;82.51
11680;BME280;5896;42.686;23.142;2024-02-16T00:54:45;93645.66;;;-1.40;83.52
11680;BME280;5896;42.686;23.142;2024-02-16T00:57:12;93638.88;;;-1.30;83.16
11680;BME280;5896;42.686;23.142;2024-02-16T00:59:39;93636.63;;;-1.23;82.75
11680;BME280;5896;42.686;23.142;2024-02-16T01:02:05;93642.63;;;-1.24;82.51
11680;BME280;5896;42.686;23.142;2024-02-16T01:04:30;93643.19;;;-1.20;82.73
11680;BME280;5896;42.686;23.142;2024-02-16T01:06:55;93646.84;;;-1.44;83.84
11680;BME280;5896;42.686;23.142;2024-02-16T01:09:21;93642.22;;;-1.29;82.88
11680;BME280;5896;42.686;23.142;2024-02-16T01:11:46;93643.97;;;-1.20;82.37
11680;BME280;5896;42.686;23.142;2024-02-16T01:14:12;93636.09;;;-1.27;82.73
11680;BME280;5896;42.686;23.142;2024-02-16T01:16:38;93632.09;;;-1.19;82.28
11680;BME280;5896;42.686;23.142;2024-02-16T01:19:03;93633.41;;;-1.25;82.81
11680;BME280;5896;42.686;23.142;2024-02-16T01:21:28;93633.00;;;-1.30;82.85
11680;BME280;5896;42.686;23.142;2024-02-16T01:23:54;93632.75;;;-1.27;82.81
11680;BME280;5896;42.686;23.142;2024-02-16T01:26:19;93631.81;;;-1.26;82.78
11680;BME280;5896;42.686;23.142;2024-02-16T01:28:44;93631.81;;;-1.36;83.00
11680;BME280;5896;42.686;23.142;2024-02-16T01:31:10;93628.06;;;-1.41;83.68
11680;BME280;5896;42.686;23.142;2024-02-16T01:33:36;93622.06;;;-1.40;83.62
11680;BME280;5896;42.686;23.142;2024-02-16T01:36:03;93621.41;;;-1.33;82.96
11680;BME280;5896;42.686;23.142;2024-02-16T01:38:28;93625.13;;;-1.47;82.88
11680;BME280;5896;42.686;23.142;2024-02-16T01:40:54;93621.66;;;-1.45;83.50
11680;BME280;5896;42.686;23.142;2024-02-16T01:43:20;93624.72;;;-1.42;82.73
11680;BME280;5896;42.686;23.142;2024-02-16T01:45:46;93624.38;;;-1.28;82.70
11680;BME280;5896;42.686;23.142;2024-02-16T01:48:12;93619.41;;;-1.29;82.52
11680;BME280;5896;42.686;23.142;2024-02-16T01:50:38;93615.28;;;-1.40;82.53
11680;BME280;5896;42.686;23.142;2024-02-16T01:53:04;93614.22;;;-1.37;82.38
11680;BME280;5896;42.686;23.142;2024-02-16T01:55:29;93617.00;;;-1.40;82.41
11680;BME280;5896;42.686;23.142;2024-02-16T01:57:55;93610.22;;;-1.40;82.39
11680;BME280;5896;42.686;23.142;2024-02-16T02:00:22;93614.09;;;-1.36;82.25
11680;BME280;5896;42.686;23.142;2024-02-16T02:02:48;93615.53;;;-1.33;82.26
11680;BME280;5896;42.686;23.142;2024-02-16T02:05:13;93611.03;;;-1.39;82.57
11680;BME280;5896;42.686;23.142;2024-02-16T02:07:40;93617.13;;;-1.42;82.80
11680;BME280;5896;42.686;23.142;2024-02-16T02:10:06;93611.28;;;-1.42;82.34
11680;BME280;5896;42.686;23.142;2024-02-16T02:12:31;93618.72;;;-1.41;82.44
11680;BME280;5896;42.686;23.142;2024-02-16T02:14:56;93619.41;;;-1.39;82.62
11680;BME280;5896;42.686;23.142;2024-02-16T02:17:22;93620.72;;;-1.44;82.69
11680;BME280;5896;42.686;23.142;2024-02-16T02:19:48;93618.47;;;-1.48;82.58
11680;BME280;5896;42.686;23.142;2024-02-16T02:22:17;93614.56;;;-1.52;82.84
11680;BME280;5896;42.686;23.142;2024-02-16T02:24:44;93616.59;;;-1.55;82.89
11680;BME280;5896;42.686;23.142;2024-02-16T02:27:11;93610.88;;;-1.48;82.60
11680;BME280;5896;42.686;23.142;2024-02-16T02:29:37;93614.47;;;-1.50;82.49
11680;BME280;5896;42.686;23.142;2024-02-16T02:32:02;93617.28;;;-1.43;81.74
11680;BME280;5896;42.686;23.142;2024-02-16T02:34:29;93610.34;;;-1.41;81.83
11680;BME280;5896;42.686;23.142;2024-02-16T02:36:54;93614.47;;;-1.40;81.64
11680;BME280;5896;42.686;23.142;2024-02-16T02:39:20;93616.50;;;-1.34;81.62
11680;BME280;5896;42.686;23.142;2024-02-16T02:41:45;93616.88;;;-1.29;81.04
11680;BME280;5896;42.686;23.142;2024-02-16T02:44:10;93615.16;;;-1.38;81.03
11680;BME280;5896;42.686;23.142;2024-02-16T02:46:36;93608.34;;;-1.48;81.62
11680;BME280;5896;42.686;23.142;2024-02-16T02:49:02;93610.00;;;-1.77;83.38
11680;BME280;5896;42.686;23.142;2024-02-16T02:51:29;93609.00;;;-1.45;82.10
11680;BME280;5896;42.686;23.142;2024-02-16T02:53:54;93603.50;;;-1.60;82.54
11680;BME280;5896;42.686;23.142;2024-02-16T02:56:19;93618.03;;;-1.53;82.31
11680;BME280;5896;42.686;23.142;2024-02-16T02:58:45;93612.56;;;-1.58;82.03
11680;BME280;5896;42.686;23.142;2024-02-16T03:01:11;93616.44;;;-1.54;81.96
11680;BME280;5896;42.686;23.142;2024-02-16T03:03:36;93612.47;;;-1.47;81.27
11680;BME280;5896;42.686;23.142;2024-02-16T03:06:02;93618.19;;;-1.44;80.99
11680;BME280;5896;42.686;23.142;2024-02-16T03:08:28;93613.13;;;-1.54;81.80
11680;BME280;5896;42.686;23.142;2024-02-16T03:10:54;93616.84;;;-1.58;81.89
11680;BME280;5896;42.686;23.142;2024-02-16T03:13:19;93620.44;;;-1.61;81.53
11680;BME280;5896;42.686;23.142;2024-02-16T03:15:45;93606.13;;;-1.72;82.03
11680;BME280;5896;42.686;23.142;2024-02-16T03:18:10;93621.72;;;-1.76;82.41
11680;BME280;5896;42.686;23.142;2024-02-16T03:20:36;93618.09;;;-1.83;82.42
11680;BME280;5896;42.686;23.142;2024-02-16T03:23:02;93618.00;;;-1.72;82.11
11680;BME280;5896;42.686;23.142;2024-02-16T03:25:28;93626.63;;;-1.75;82.15
11680;BME280;5896;42.686;23.142;2024-02-16T03:27:53;93624.78;;;-1.73;82.45
11680;BME280;5896;42.686;23.142;2024-02-16T03:30:21;93622.13;;;-1.71;81.96
11680;BME280;5896;42.686;23.142;2024-02-16T03:32:50;93620.81;;;-1.65;82.28
11680;BME280;5896;42.686;23.142;2024-02-16T03:35:16;93622.81;;;-1.69;81.94
11680;BME280;5896;42.686;23.142;2024-02-16T03:37:41;93618.84;;;-1.62;82.05
11680;BME280;5896;42.686;23.142;2024-02-16T03:40:07;93617.50;;;-1.66;82.25
11680;BME280;5896;42.686;23.142;2024-02-16T03:42:33;93624.28;;;-1.57;81.62
11680;BME280;5896;42.686;23.142;2024-02-16T03:44:59;93621.63;;;-1.65;81.82
11680;BME280;5896;42.686;23.142;2024-02-16T03:47:24;93623.47;;;-1.67;81.62
11680;BME280;5896;42.686;23.142;2024-02-16T03:49:50;93621.88;;;-1.68;82.04
11680;BME280;5896;42.686;23.142;2024-02-16T03:52:15;93618.41;;;-1.67;82.00
11680;BME280;5896;42.686;23.142;2024-02-16T03:54:41;93624.09;;;-1.75;82.17
11680;BME280;5896;42.686;23.142;2024-02-16T03:57:09;93615.16;;;-1.88;82.14
11680;BME280;5896;42.686;23.142;2024-02-16T03:59:36;93613.56;;;-1.80;82.71
11680;BME280;5896;42.686;23.142;2024-02-16T04:02:02;93624.25;;;-1.76;82.51
11680;BME280;5896;42.686;23.142;2024-02-16T04:04:28;93624.38;;;-1.78;82.54
11680;BME280;5896;42.686;23.142;2024-02-16T04:06:53;93620.63;;;-1.83;82.77
11680;BME280;5896;42.686;23.142;2024-02-16T04:09:18;93609.16;;;-1.87;82.63
11680;BME280;5896;42.686;23.142;2024-02-16T04:11:46;93614.13;;;-1.76;83.04
11680;BME280;5896;42.686;23.142;2024-02-16T04:14:12;93606.91;;;-1.81;82.61
11680;BME280;5896;42.686;23.142;2024-02-16T04:16:38;93609.56;;;-1.82;82.60
11680;BME280;5896;42.686;23.142;2024-02-16T04:19:03;93613.97;;;-1.84;82.88
11680;BME280;5896;42.686;23.142;2024-02-16T04:21:29;93609.84;;;-1.76;82.64
11680;BME280;5896;42.686;23.142;2024-02-16T04:23:54;93621.47;;;-1.73;82.39
11680;BME280;5896;42.686;23.142;2024-02-16T04:26:20;93618.63;;;-1.80;82.21
11680;BME280;5896;42.686;23.142;2024-02-16T04:28:45;93617.84;;;-1.80;82.45
11680;BME280;5896;42.686;23.142;2024-02-16T04:31:10;93620.13;;;-1.77;82.51
11680;BME280;5896;42.686;23.142;2024-02-16T04:33:36;93614.25;;;-1.78;82.62
11680;BME280;5896;42.686;23.142;2024-02-16T04:36:01;93621.72;;;-1.76;82.57
11680;BME280;5896;42.686;23.142;2024-02-16T04:38:27;93626.09;;;-1.78;82.50
11680;BME280;5896;42.686;23.142;2024-02-16T04:40:52;93624.47;;;-1.89;82.78
11680;BME280;5896;42.686;23.142;2024-02-16T04:43:17;93621.16;;;-1.89;82.88
11680;BME280;5896;42.686;23.142;2024-02-16T04:45:43;93621.56;;;-1.84;83.28
11680;BME280;5896;42.686;23.142;2024-02-16T04:48:08;93619.56;;;-1.81;83.03
11680;BME280;5896;42.686;23.142;2024-02-16T04:50:34;93617.03;;;-1.81;82.65
11680;BME280;5896;42.686;23.142;2024-02-16T04:53:00;93620.50;;;-1.82;82.94
11680;BME280;5896;42.686;23.142;2024-02-16T04:55:29;93625.03;;;-1.76;83.02
11680;BME280;5896;42.686;23.142;2024-02-16T04:57:56;93629.56;;;-1.79;83.36
11680;BME280;5896;42.686;23.142;2024-02-16T05:00:22;93624.88;;;-1.84;83.16
11680;BME280;5896;42.686;23.142;2024-02-16T05:02:47;93628.09;;;-1.82;83.40
11680;BME280;5896;42.686;23.142;2024-02-16T05:05:12;93634.28;;;-1.96;83.35
11680;BME280;5896;42.686;23.142;2024-02-16T05:07:38;93630.34;;;-1.88;83.81
11680;BME280;5896;42.686;23.142;2024-02-16T05:10:08;93628.81;;;-2.01;84.47
11680;BME280;5896;42.686;23.142;2024-02-16T05:12:33;93642.50;;;-2.03;84.82
11680;BME280;5896;42.686;23.142;2024-02-16T05:14:59;93649.69;;;-2.08;84.73
11680;BME280;5896;42.686;23.142;2024-02-16T05:17:25;93647.16;;;-2.08;85.27
11680;BME280;5896;42.686;23.142;2024-02-16T05:19:50;93650.59;;;-2.09;84.95
11680;BME280;5896;42.686;23.142;2024-02-16T05:22:15;93655.72;;;-2.21;84.85
11680;BME280;5896;42.686;23.142;2024-02-16T05:24:43;93655.31;;;-2.26;84.80
11680;BME280;5896;42.686;23.142;2024-02-16T05:27:08;93663.44;;;-2.22;84.83
11680;BME280;5896;42.686;23.142;2024-02-16T05:29:36;93655.34;;;-2.16;85.23
11680;BME280;5896;42.686;23.142;2024-02-16T05:32:01;93657.00;;;-2.05;84.94
11680;BME280;5896;42.686;23.142;2024-02-16T05:34:26;93645.75;;;-1.91;83.98
11680;BME280;5896;42.686;23.142;2024-02-16T05:36:52;93656.00;;;-1.93;83.83
11680;BME280;5896;42.686;23.142;2024-02-16T05:39:17;93661.78;;;-1.81;83.14
11680;BME280;5896;42.686;23.142;2024-02-16T05:41:51;93664.31;;;-1.81;83.19
11680;BME280;5896;42.686;23.142;2024-02-16T05:44:16;93665.66;;;-1.77;83.57
11680;BME280;5896;42.686;23.142;2024-02-16T05:46:42;93654.09;;;-1.70;83.61
11680;BME280;5896;42.686;23.142;2024-02-16T05:49:09;93658.94;;;-1.57;82.87
11680;BME280;5896;42.686;23.142;2024-02-16T05:51:36;93666.69;;;-2.10;85.47
11680;BME280;5896;42.686;23.142;2024-02-16T05:54:02;93663.13;;;-1.77;84.34
11680;BME280;5896;42.686;23.142;2024-02-16T05:56:28;93660.06;;;-1.71;83.51
11680;BME280;5896;42.686;23.142;2024-02-16T05:58:53;93675.94;;;-1.69;84.26
11680;BME280;5896;42.686;23.142;2024-02-16T06:01:19;93668.66;;;-1.62;83.37
11680;BME280;5896;42.686;23.142;2024-02-16T06:03:44;93663.19;;;-1.58;83.13
11680;BME280;5896;42.686;23.142;2024-02-16T06:06:10;93672.78;;;-1.52;83.33
11680;BME280;5896;42.686;23.142;2024-02-16T06:08:35;93674.81;;;-1.45;82.43
11680;BME280;5896;42.686;23.142;2024-02-16T06:11:00;93675.22;;;-1.40;82.46
11680;BME280;5896;42.686;23.142;2024-02-16T06:13:28;93672.34;;;-1.26;82.27
11680;BME280;5896;42.686;23.142;2024-02-16T06:15:54;93678.75;;;-1.22;81.77
11680;BME280;5896;42.686;23.142;2024-02-16T06:18:20;93666.75;;;-1.20;81.54
11680;BME280;5896;42.686;23.142;2024-02-16T06:20:45;93676.00;;;-0.90;80.60
11680;BME280;5896;42.686;23.142;2024-02-16T06:23:11;93671.22;;;-0.83;80.62
11680;BME280;5896;42.686;23.142;2024-02-16T06:25:36;93672.53;;;-0.89;80.77
11680;BME280;5896;42.686;23.142;2024-02-16T06:28:02;93680.28;;;-0.81;80.39
11680;BME280;5896;42.686;23.142;2024-02-16T06:30:28;93678.53;;;-0.80;80.79
11680;BME280;5896;42.686;23.142;2024-02-16T06:32:53;93679.38;;;-0.60;80.51
11680;BME280;5896;42.686;23.142;2024-02-16T06:35:20;93674.53;;;-0.44;79.71
11680;BME280;5896;42.686;23.142;2024-02-16T06:37:45;93676.66;;;-0.30;78.37
11680;BME280;5896;42.686;23.142;2024-02-16T06:40:11;93680.50;;;-0.16;78.27
11680;BME280;5896;42.686;23.142;2024-02-16T06:42:37;93680.75;;;-0.09;77.98
11680;BME280;5896;42.686;23.142;2024-02-16T06:45:03;93682.34;;;0.02;77.58
11680;BME280;5896;42.686;23.142;2024-02-16T06:47:31;93677.53;;;0.08;77.93
11680;BME280;5896;42.686;23.142;2024-02-16T06:49:56;93677.50;;;0.18;77.74
11680;BME280;5896;42.686;23.142;2024-02-16T06:52:21;93677.31;;;0.29;76.76
11680;BME280;5896;42.686;23.142;2024-02-16T06:54:47;93675.41;;;0.41;77.43
11680;BME280;5896;42.686;23.142;2024-02-16T06:57:12;93686.47;;;0.50;76.52
11680;BME280;5896;42.686;23.142;2024-02-16T06:59:38;93676.94;;;0.61;75.93
11680;BME280;5896;42.686;23.142;2024-02-16T07:02:03;93675.72;;;0.83;73.90
11680;BME280;5896;42.686;23.142;2024-02-16T07:04:29;93679.78;;;1.04;72.78
11680;BME280;5896;42.686;23.142;2024-02-16T07:06:54;93666.78;;;1.25;71.96
11680;BME280;5896;42.686;23.142;2024-02-16T07:09:19;93679.38;;;1.44;70.64
11680;BME280;5896;42.686;23.142;2024-02-16T07:11:47;93672.81;;;1.59;70.17
11680;BME280;5896;42.686;23.142;2024-02-16T07:14:15;93679.50;;;1.78;68.88
11680;BME280;5896;42.686;23.142;2024-02-16T07:16:41;93672.53;;;1.88;68.74
11680;BME280;5896;42.686;23.142;2024-02-16T07:19:06;93672.47;;;1.98;68.38
11680;BME280;5896;42.686;23.142;2024-02-16T07:21:32;93669.31;;;2.04;68.56
11680;BME280;5896;42.686;23.142;2024-02-16T07:23:57;93674.47;;;2.12;68.23
11680;BME280;5896;42.686;23.142;2024-02-16T07:26:22;93675.31;;;2.21;67.67
11680;BME280;5896;42.686;23.142;2024-02-16T07:28:48;93677.66;;;2.14;68.33
11680;BME280;5896;42.686;23.142;2024-02-16T07:31:13;93675.34;;;2.29;67.65
11680;BME280;5896;42.686;23.142;2024-02-16T07:33:40;93674.59;;;2.37;68.24
11680;BME280;5896;42.686;23.142;2024-02-16T07:36:05;93678.00;;;2.54;67.40
11680;BME280;5896;42.686;23.142;2024-02-16T07:38:31;93669.16;;;2.66;67.44
11680;BME280;5896;42.686;23.142;2024-02-16T07:40:56;93677.81;;;2.73;69.17
11680;BME280;5896;42.686;23.142;2024-02-16T07:43:22;93676.03;;;2.74;68.37
11680;BME280;5896;42.686;23.142;2024-02-16T07:45:49;93677.53;;;2.84;67.26
11680;BME280;5896;42.686;23.142;2024-02-16T07:48:15;93676.75;;;2.92;67.47
11680;BME280;5896;42.686;23.142;2024-02-16T07:50:40;93678.84;;;3.05;66.20
11680;BME280;5896;42.686;23.142;2024-02-16T07:53:06;93676.34;;;3.29;66.02
11680;BME280;5896;42.686;23.142;2024-02-16T07:55:32;93683.56;;;3.50;66.07
11680;BME280;5896;42.686;23.142;2024-02-16T07:57:58;93687.25;;;3.64;65.72
11680;BME280;5896;42.686;23.142;2024-02-16T08:00:23;93686.28;;;3.73;63.13
11680;BME280;5896;42.686;23.142;2024-02-16T08:02:48;93683.56;;;3.75;63.56
11680;BME280;5896;42.686;23.142;2024-02-16T08:05:14;93683.59;;;3.91;63.82
11680;BME280;5896;42.686;23.142;2024-02-16T08:07:40;93685.66;;;3.96;65.15
11680;BME280;5896;42.686;23.142;2024-02-16T08:10:10;93687.25;;;4.13;64.68
11680;BME280;5896;42.686;23.142;2024-02-16T08:12:35;93685.94;;;4.33;63.20
11680;BME280;5896;42.686;23.142;2024-02-16T08:15:05;93693.53;;;4.66;61.49
11680;BME280;5896;42.686;23.142;2024-02-16T08:17:34;93687.56;;;4.82;60.94
11680;BME280;5896;42.686;23.142;2024-02-16T08:20:00;93687.69;;;4.80;61.81
11680;BME280;5896;42.686;23.142;2024-02-16T08:22:26;93692.22;;;4.62;61.68
11680;BME280;5896;42.686;23.142;2024-02-16T08:24:51;93689.44;;;4.88;62.31
11680;BME280;5896;42.686;23.142;2024-02-16T08:27:17;93693.84;;;5.02;62.11
11680;BME280;5896;42.686;23.142;2024-02-16T08:29:43;93690.59;;;5.17;61.98
11680;BME280;5896;42.686;23.142;2024-02-16T08:32:09;93684.91;;;5.29;60.04
11680;BME280;5896;42.686;23.142;2024-02-16T08:34:35;93692.41;;;5.08;61.46
11680;BME280;5896;42.686;23.142;2024-02-16T08:37:04;93692.31;;;5.24;60.80
11680;BME280;5896;42.686;23.142;2024-02-16T08:39:30;93688.81;;;5.71;60.12
11680;BME280;5896;42.686;23.142;2024-02-16T08:41:56;93681.75;;;6.19;57.92
11680;BME280;5896;42.686;23.142;2024-02-16T08:44:23;93680.34;;;6.31;58.37
11680;BME280;5896;42.686;23.142;2024-02-16T08:46:49;93680.25;;;7.14;55.89
11680;BME280;5896;42.686;23.142;2024-02-16T08:49:16;93683.84;;;7.19;55.96
11680;BME280;5896;42.686;23.142;2024-02-16T08:51:41;93685.88;;;8.03;52.12
11680;BME280;5896;42.686;23.142;2024-02-16T08:54:07;93687.84;;;8.50;51.03
11680;BME280;5896;42.686;23.142;2024-02-16T08:56:33;93681.16;;;8.56;50.13
11680;BME280;5896;42.686;23.142;2024-02-16T09:08:17;93687.53;;;8.95;49.37
11680;BME280;5896;42.686;23.142;2024-02-16T09:10:42;93690.25;;;9.35;49.00
11680;BME280;5896;42.686;23.142;2024-02-16T09:13:08;93693.75;;;9.20;50.00
11680;BME280;5896;42.686;23.142;2024-02-16T09:15:34;93697.31;;;9.19;49.05
11680;BME280;5896;42.686;23.142;2024-02-16T09:18:00;93696.84;;;9.57;47.40
11680;BME280;5896;42.686;23.142;2024-02-16T09:20:25;93698.44;;;9.52;47.25
11680;BME280;5896;42.686;23.142;2024-02-16T09:22:50;93701.09;;;9.23;47.88
11680;BME280;5896;42.686;23.142;2024-02-16T09:25:16;93698.41;;;9.45;48.43
11680;BME280;5896;42.686;23.142;2024-02-16T09:27:41;93702.47;;;9.19;49.96
11680;BME280;5896;42.686;23.142;2024-02-16T09:30:13;93703.50;;;8.56;53.03
11680;BME280;5896;42.686;23.142;2024-02-16T09:32:41;93699.22;;;9.04;49.98
11680;BME280;5896;42.686;23.142;2024-02-16T09:35:09;93693.94;;;9.80;48.64
11680;BME280;5896;42.686;23.142;2024-02-16T09:37:39;93701.56;;;9.47;48.09
11680;BME280;5896;42.686;23.142;2024-02-16T09:40:05;93705.16;;;9.46;47.88
11680;BME280;5896;42.686;23.142;2024-02-16T09:42:32;93700.47;;;9.76;47.40
11680;BME280;5896;42.686;23.142;2024-02-16T09:45:01;93706.31;;;9.37;48.38
11680;BME280;5896;42.686;23.142;2024-02-16T09:47:28;93699.41;;;9.50;47.74
11680;BME280;5896;42.686;23.142;2024-02-16T09:49:57;93698.84;;;9.07;49.02
11680;BME280;5896;42.686;23.142;2024-02-16T09:52:23;93701.13;;;8.89;48.09
11680;BME280;5896;42.686;23.142;2024-02-16T09:54:49;93686.59;;;9.84;46.94
11680;BME280;5896;42.686;23.142;2024-02-16T09:57:18;93688.34;;;9.63;49.76
11680;BME280;5896;42.686;23.142;2024-02-16T09:59:44;93684.88;;;9.30;48.87
11680;BME280;5896;42.686;23.142;2024-02-16T10:02:09;93682.47;;;9.89;45.48
11680;BME280;5896;42.686;23.142;2024-02-16T10:04:35;93682.63;;;9.74;47.64
11680;BME280;5896;42.686;23.142;2024-02-16T10:07:01;93683.00;;;9.04;49.74
11680;BME280;5896;42.686;23.142;2024-02-16T10:09:29;93672.78;;;8.82;47.99
11680;BME280;5896;42.686;23.142;2024-02-16T10:11:55;93670.28;;;8.95;49.98
11680;BME280;5896;42.686;23.142;2024-02-16T10:14:20;93673.53;;;9.11;48.99
11680;BME280;5896;42.686;23.142;2024-02-16T10:16:47;93669.47;;;9.49;47.29
11680;BME280;5896;42.686;23.142;2024-02-16T10:19:13;93672.44;;;9.40;49.81
11680;BME280;5896;42.686;23.142;2024-02-16T10:21:39;93670.91;;;9.72;47.56
11680;BME280;5896;42.686;23.142;2024-02-16T10:24:06;93654.25;;;9.68;48.40
11680;BME280;5896;42.686;23.142;2024-02-16T10:26:35;93654.00;;;9.43;47.57
11680;BME280;5896;42.686;23.142;2024-02-16T10:29:09;93653.91;;;9.16;47.18
11680;BME280;5896;42.686;23.142;2024-02-16T10:31:36;93656.69;;;10.09;47.60
11680;BME280;5896;42.686;23.142;2024-02-16T10:34:03;93646.31;;;9.56;47.44
11680;BME280;5896;42.686;23.142;2024-02-16T10:36:33;93654.81;;;9.43;49.98
11680;BME280;5896;42.686;23.142;2024-02-16T10:38:59;93649.28;;;9.53;45.88
11680;BME280;5896;42.686;23.142;2024-02-16T10:41:27;93653.91;;;9.91;46.79
11680;BME280;5896;42.686;23.142;2024-02-16T10:43:55;93650.34;;;10.32;49.48
11680;BME280;5896;42.686;23.142;2024-02-16T10:46:22;93646.75;;;10.06;46.79
11680;BME280;5896;42.686;23.142;2024-02-16T10:48:49;93645.69;;;9.54;46.56
11680;BME280;5896;42.686;23.142;2024-02-16T10:51:17;93641.22;;;10.16;48.82
11680;BME280;5896;42.686;23.142;2024-02-16T10:53:46;93639.22;;;10.44;44.85
11680;BME280;5896;42.686;23.142;2024-02-16T10:56:13;93631.91;;;10.35;45.98
11680;BME280;5896;42.686;23.142;2024-02-16T10:58:39;93627.09;;;10.52;48.45
11680;BME280;5896;42.686;23.142;2024-02-16T11:01:15;93628.09;;;10.24;46.93
11680;BME280;5896;42.686;23.142;2024-02-16T11:03:40;93631.00;;;10.81;45.24
11680;BME280;5896;42.686;23.142;2024-02-16T11:06:16;93626.09;;;10.53;44.43
11680;BME280;5896;42.686;23.142;2024-02-16T11:08:48;93628.50;;;10.14;44.82
11680;BME280;5896;42.686;23.142;2024-02-16T11:11:22;93623.88;;;10.69;45.57
11680;BME280;5896;42.686;23.142;2024-02-16T11:13:48;93628.44;;;10.81;45.45
11680;BME280;5896;42.686;23.142;2024-02-16T11:16:13;93623.72;;;10.58;46.29
11680;BME280;5896;42.686;23.142;2024-02-16T11:18:40;93621.53;;;9.68;46.16
11680;BME280;5896;42.686;23.142;2024-02-16T11:21:06;93616.22;;;10.23;47.49
11680;BME280;5896;42.686;23.142;2024-02-16T11:23:35;93612.06;;;10.15;46.81
11680;BME280;5896;42.686;23.142;2024-02-16T11:26:03;93609.03;;;10.58;48.39
11680;BME280;5896;42.686;23.142;2024-02-16T11:28:32;93613.84;;;10.02;46.74
11680;BME280;5896;42.686;23.142;2024-02-16T11:30:59;93602.72;;;10.34;46.15
11680;BME280;5896;42.686;23.142;2024-02-16T11:33:25;93605.34;;;10.86;46.20
11680;BME280;5896;42.686;23.142;2024-02-16T11:36:00;93607.06;;;10.47;46.38
11680;BME280;5896;42.686;23.142;2024-02-16T11:38:26;93597.53;;;10.41;45.69
11680;BME280;5896;42.686;23.142;2024-02-16T11:41:05;93598.53;;;10.40;46.77
11680;BME280;5896;42.686;23.142;2024-02-16T11:43:31;93592.53;;;11.17;43.61
11680;BME280;5896;42.686;23.142;2024-02-16T11:46:10;93590.47;;;11.33;44.64
11680;BME280;5896;42.686;23.142;2024-02-16T11:48:35;93594.63;;;11.34;42.55
11680;BME280;5896;42.686;23.142;2024-02-16T11:51:02;93597.00;;;11.67;43.46
11680;BME280;5896;42.686;23.142;2024-02-16T11:53:29;93591.03;;;10.90;44.76
11680;BME280;5896;42.686;23.142;2024-02-16T11:55:55;93587.22;;;11.44;43.96
11680;BME280;5896;42.686;23.142;2024-02-16T11:58:20;93578.16;;;10.83;44.40
11680;BME280;5896;42.686;23.142;2024-02-16T12:00:46;93584.41;;;10.49;44.55
11680;BME280;5896;42.686;23.142;2024-02-16T12:03:22;93580.91;;;10.95;44.25
11680;BME280;5896;42.686;23.142;2024-02-16T12:05:51;93579.44;;;11.44;43.34
11680;BME280;5896;42.686;23.142;2024-02-16T12:08:17;93569.34;;;10.98;43.90
11680;BME280;5896;42.686;23.142;2024-02-16T12:10:42;93585.31;;;11.26;42.59
11680;BME280;5896;42.686;23.142;2024-02-16T12:13:09;93577.81;;;10.66;45.72
11680;BME280;5896;42.686;23.142;2024-02-16T12:15:37;93573.88;;;11.09;41.50
11680;BME280;5896;42.686;23.142;2024-02-16T12:18:02;93581.88;;;11.71;42.60
11680;BME280;5896;42.686;23.142;2024-02-16T12:20:30;93581.41;;;10.59;43.53
11680;BME280;5896;42.686;23.142;2024-02-16T12:22:56;93581.66;;;12.22;41.24
11680;BME280;5896;42.686;23.142;2024-02-16T12:25:22;93579.63;;;11.49;42.92
11680;BME280;5896;42.686;23.142;2024-02-16T12:27:47;93575.41;;;11.80;42.34
11680;BME280;5896;42.686;23.142;2024-02-16T12:30:13;93567.53;;;12.00;42.10
11680;BME280;5896;42.686;23.142;2024-02-16T12:32:38;93569.47;;;11.48;40.89
11680;BME280;5896;42.686;23.142;2024-02-16T12:35:04;93577.97;;;11.55;43.29
11680;BME280;5896;42.686;23.142;2024-02-16T12:37:30;93572.97;;;12.16;41.51
11680;BME280;5896;42.686;23.142;2024-02-16T12:39:56;93554.41;;;12.38;40.39
11680;BME280;5896;42.686;23.142;2024-02-16T12:42:21;93561.66;;;11.54;41.48
11680;BME280;5896;42.686;23.142;2024-02-16T12:44:46;93568.38;;;11.62;41.53
11680;BME280;5896;42.686;23.142;2024-02-16T12:47:12;93557.50;;;12.10;40.54
11680;BME280;5896;42.686;23.142;2024-02-16T12:49:37;93557.84;;;12.13;40.48
11680;BME280;5896;42.686;23.142;2024-02-16T12:52:03;93561.53;;;12.24;40.07
11680;BME280;5896;42.686;23.142;2024-02-16T12:54:28;93559.09;;;11.23;42.04
11680;BME280;5896;42.686;23.142;2024-02-16T12:56:53;93563.09;;;12.07;41.58
11680;BME280;5896;42.686;23.142;2024-02-16T12:59:19;93557.25;;;12.11;39.43
11680;BME280;5896;42.686;23.142;2024-02-16T13:01:44;93562.00;;;12.39;39.25
11680;BME280;5896;42.686;23.142;2024-02-16T13:04:11;93561.88;;;11.78;40.75
11680;BME280;5896;42.686;23.142;2024-02-16T13:06:37;93562.72;;;12.03;39.61